Time;durP1;ratioP1;P1;durP2;ratioP2;P2;SDS_P1;SDS_P2;PMS_P1;PMS_P2;Temp;Humidity;BMP_temperature;BMP_pressure;BME280_temperature;BME280_humidity;BME280_pressure;Samples;Min_cycle;Max_cycle;Signal;HPM_P1;HPM_P2
2022/06/29 00:00:50;;;;;;;4.47;1.30;;;;;;;14.22;85.59;100022.19;5886961;24;20657;-76
2022/06/29 00:03:51;;;;;;;8.23;1.80;;;;;;;14.17;87.85;100044.31;5904759;24;20384;-77
2022/06/29 00:06:17;;;;;;;7.72;1.55;;;;;;;13.92;89.21;100032.59;5874410;24;20077;-77
2022/06/29 00:22:31;;;;;;;12.02;1.73;;;;;;;13.38;96.81;100035.50;5933538;24;20088;-77
2022/06/29 00:26:12;;;;;;;6.25;1.30;;;;;;;13.20;97.33;100004.13;5991156;23;20537;-79
2022/06/29 00:35:25;;;;;;;5.15;1.55;;;;;;;13.25;98.63;100019.72;5959539;24;20016;-79
2022/06/29 00:38:50;;;;;;;5.18;1.30;;;;;;;12.98;98.95;99987.38;5978240;24;20506;-78
2022/06/29 00:41:34;;;;;;;;;;;;;;;;;;;;;
2022/06/29 00:44:12;;;;;;;;;;;;;;;;;;;;;
2022/06/29 00:47:05;;;;;;;;;;;;;;;;;;;;;
2022/06/29 00:49:52;;;;;;;3.20;0.88;;;;;;;13.15;100.00;100014.34;6014037;23;20043;-81
2022/06/29 01:00:02;;;;;;;;;;;;;;;;;;;;;
2022/06/29 01:06:50;;;;;;;4.55;0.88;;;;;;;13.08;100.00;100010.06;6030436;23;20015;-79
2022/06/29 01:25:00;;;;;;;;;;;;;;;;;;;;;
2022/06/29 01:27:39;;;;;;;;;;;;;;;;;;;;;
2022/06/29 01:34:17;;;;;;;3.40;0.95;;;;;;;12.95;100.00;99974.25;5911866;23;20171;-81
2022/06/29 01:36:46;;;;;;;1.75;0.75;;;;;;;12.88;100.00;99956.22;5903374;24;20006;-79
2022/06/29 01:39:22;;;;;;;4.82;0.90;;;;;;;12.88;100.00;99941.69;5956886;24;20398;-81
2022/06/29 01:48:52;;;;;;;2.38;1.48;;;;;;;13.07;100.00;99961.75;5916109;24;20023;-79
2022/06/29 01:51:20;;;;;;;6.68;1.05;;;;;;;12.94;100.00;99943.25;5957525;23;20015;-78
2022/06/29 01:54:02;;;;;;;3.40;1.13;;;;;;;13.02;100.00;99956.31;6056484;23;20564;-77
2022/06/29 01:56:50;;;;;;;1.77;0.80;;;;;;;13.16;100.00;99972.09;6125276;23;20302;-78
2022/06/29 01:59:15;;;;;;;6.80;1.13;;;;;;;13.06;100.00;99956.53;6129459;23;20017;-78
2022/06/29 02:01:45;;;;;;;4.72;1.13;;;;;;;13.01;100.00;99938.22;6127309;23;20010;-79
2022/06/29 02:04:11;;;;;;;3.40;0.90;;;;;;;13.16;100.00;99966.59;6243374;23;20008;-77
2022/06/29 02:06:36;;;;;;;1.33;0.73;;;;;;;13.18;100.00;99969.84;6225806;23;20004;-78
2022/06/29 02:09:02;;;;;;;5.32;1.05;;;;;;;13.19;100.00;99960.50;6251869;22;20023;-76
2022/06/29 02:11:27;;;;;;;3.53;0.77;;;;;;;13.21;100.00;99963.75;6198612;23;20458;-77
2022/06/29 02:13:53;;;;;;;3.28;0.73;;;;;;;13.18;100.00;99954.19;6171269;23;20019;-78
2022/06/29 02:16:22;;;;;;;1.65;0.60;;;;;;;13.23;100.00;99956.88;6223205;22;20008;-76
2022/06/29 02:18:48;;;;;;;2.70;0.70;;;;;;;13.24;100.00;99952.19;6223035;23;20028;-76
2022/06/29 02:21:14;;;;;;;2.90;0.85;;;;;;;13.29;100.00;99957.63;6244999;23;20012;-75
2022/06/29 02:23:39;;;;;;;2.65;0.80;;;;;;;13.24;100.00;99953.03;6250115;23;20011;-77
2022/06/29 02:26:05;;;;;;;4.00;0.95;;;;;;;13.22;100.00;99948.94;6225361;23;20083;-78
2022/06/29 02:28:30;;;;;;;2.22;0.68;;;;;;;13.25;100.00;99948.34;6221805;23;20012;-77
2022/06/29 02:36:27;;;;;;;0.88;0.60;;;;;;;13.37;100.00;99939.69;6205390;23;20204;-76
2022/06/29 02:38:53;;;;;;;6.68;1.00;;;;;;;13.39;100.00;99949.28;6224044;23;20012;-77
2022/06/29 02:41:18;;;;;;;3.17;1.58;;;;;;;13.30;100.00;99940.00;6250048;23;20010;-77
2022/06/29 02:43:45;;;;;;;5.25;0.90;;;;;;;13.30;100.00;99940.00;6224485;23;20003;-77
2022/06/29 02:46:11;;;;;;;4.10;1.00;;;;;;;13.30;100.00;99945.50;6226555;23;20018;-77
2022/06/29 02:48:36;;;;;;;4.50;0.95;;;;;;;13.18;100.00;99936.91;6199593;23;19992;-76
2022/06/29 02:51:02;;;;;;;2.88;0.70;;;;;;;13.10;100.00;99941.13;6224001;23;20008;-77
2022/06/29 02:53:27;;;;;;;3.15;1.00;;;;;;;13.13;100.00;99946.03;6222211;23;20070;-77
2022/06/29 02:55:54;;;;;;;13.40;1.10;;;;;;;13.11;100.00;99940.00;6200421;23;20019;-76
2022/06/29 02:58:19;;;;;;;5.45;1.02;;;;;;;13.02;100.00;99928.84;6226662;23;20069;-77
2022/06/29 03:00:44;;;;;;;7.85;1.63;;;;;;;12.90;100.00;99942.19;6250743;23;20050;-77
2022/06/29 03:03:10;;;;;;;7.78;1.42;;;;;;;12.73;100.00;99934.44;6253379;23;20008;-78
2022/06/29 03:05:35;;;;;;;6.93;1.35;;;;;;;12.70;100.00;99937.75;6200820;23;20007;-79
2022/06/29 03:08:01;;;;;;;8.73;2.13;;;;;;;12.63;100.00;99943.63;6225535;23;20054;-77
2022/06/29 03:10:26;;;;;;;5.93;1.85;;;;;;;12.57;100.00;99940.09;6223129;23;20075;-77
2022/06/29 03:12:52;;;;;;;8.50;1.67;;;;;;;12.47;100.00;99944.88;6225566;23;20012;-76
2022/06/29 03:15:18;;;;;;;6.90;1.65;;;;;;;12.35;100.00;99937.03;6223307;23;20487;-77
2022/06/29 03:17:43;;;;;;;8.70;1.80;;;;;;;12.25;100.00;99950.84;6197642;23;20031;-77
2022/06/29 03:20:09;;;;;;;12.43;1.95;;;;;;;12.20;100.00;99946.25;6223509;23;20035;-78
2022/06/29 03:22:35;;;;;;;13.80;2.70;;;;;;;12.15;100.00;99943.53;6225893;23;20090;-77
2022/06/29 03:25:02;;;;;;;9.05;2.08;;;;;;;12.06;100.00;99929.63;6252572;23;20004;-77
2022/06/29 03:27:27;;;;;;;5.82;1.50;;;;;;;12.01;100.00;99932.44;6225322;23;20012;-76
2022/06/29 03:29:53;;;;;;;6.88;1.45;;;;;;;11.92;100.00;99929.47;6200429;23;20015;-76
2022/06/29 03:32:18;;;;;;;4.18;1.60;;;;;;;11.89;100.00;99930.03;6199997;23;20004;-77
2022/06/29 03:34:43;;;;;;;2.92;1.23;;;;;;;11.88;100.00;99929.22;6173722;23;20078;-78
2022/06/29 03:37:09;;;;;;;8.70;2.00;;;;;;;11.88;100.00;99937.44;6201840;23;20431;-77
2022/06/29 03:39:35;;;;;;;12.38;2.10;;;;;;;11.82;100.00;99935.03;6201987;23;20020;-77
2022/06/29 03:42:01;;;;;;;8.98;1.75;;;;;;;11.77;100.00;99932.31;6225935;23;20004;-76
2022/06/29 03:44:26;;;;;;;6.90;1.85;;;;;;;11.69;100.00;99929.09;6252111;23;20027;-76
2022/06/29 03:46:52;;;;;;;13.23;2.30;;;;;;;11.70;100.00;99938.94;6226467;23;20004;-77
2022/06/29 03:49:17;;;;;;;9.55;2.83;;;;;;;11.68;100.00;99935.69;6225087;23;20010;-76
2022/06/29 03:51:43;;;;;;;8.18;1.90;;;;;;;11.61;100.00;99932.44;6226688;23;20035;-77
2022/06/29 03:54:08;;;;;;;9.25;1.95;;;;;;;11.60;100.00;99941.75;6252708;23;20052;-77
2022/06/29 03:56:33;;;;;;;14.48;2.38;;;;;;;11.60;100.00;99944.50;6253019;23;20077;-79
2022/06/29 03:59:51;;;;;;;6.10;1.50;;;;;;;11.42;100.00;99926.00;6224927;23;20038;-78
2022/06/29 04:02:17;;;;;;;4.85;1.33;;;;;;;11.32;100.00;99916.75;6207557;23;20011;-76
2022/06/29 04:04:55;;;;;;;;;;;;;;;;;;;;;
2022/06/29 04:07:24;;;;;;;10.63;3.05;;;;;;;11.27;100.00;99922.28;6228762;23;20024;-77
2022/06/29 04:10:10;;;;;;;6.07;1.70;;;;;;;11.27;100.00;99929.66;6226735;23;20004;-76
2022/06/29 04:16:21;;;;;;;4.82;1.20;;;;;;;11.31;100.00;99947.97;6230359;23;20000;-78
2022/06/29 04:19:15;;;;;;;8.27;2.13;;;;;;;11.23;100.00;99934.88;6220337;23;20024;-77
2022/06/29 04:21:49;;;;;;;7.55;2.03;;;;;;;11.10;100.00;99919.91;6224540;23;20019;-78
2022/06/29 04:24:16;;;;;;;9.65;2.28;;;;;;;11.27;100.00;99944.16;6253161;23;20007;-76
2022/06/29 04:26:44;;;;;;;15.38;2.50;;;;;;;11.27;100.00;99946.91;6251340;23;20498;-76
2022/06/29 04:29:10;;;;;;;5.55;1.73;;;;;;;11.13;100.00;99918.53;6226729;23;20066;-75
2022/06/29 04:31:36;;;;;;;6.88;1.90;;;;;;;11.14;100.00;99928.34;6223595;23;20004;-75
2022/06/29 04:34:07;;;;;;;9.02;2.25;;;;;;;11.23;100.00;99943.09;6199593;23;20015;-77
2022/06/29 04:36:36;;;;;;;8.90;1.88;;;;;;;11.10;100.00;99924.56;6249302;23;20023;-76
2022/06/29 04:39:20;;;;;;;10.05;2.10;;;;;;;11.15;100.00;99938.19;6225815;23;20008;-76
2022/06/29 04:41:57;;;;;;;;;;;;;;;;;;;;;
2022/06/29 04:44:53;;;;;;;;;;;;;;;;;;;;;
2022/06/29 04:47:19;;;;;;;7.47;1.92;;;;;;;11.04;100.00;99909.25;6250866;23;20027;-76
2022/06/29 04:50:17;;;;;;;;;;;;;;;;;;;;;
2022/06/29 04:53:13;;;;;;;4.90;1.60;;;;;;;11.20;100.00;99940.94;6252024;23;20015;-77
2022/06/29 04:55:54;;;;;;;4.05;1.63;;;;;;;11.13;100.00;99927.53;6253259;23;20011;-76
2022/06/29 04:58:25;;;;;;;9.43;2.00;;;;;;;11.22;100.00;99943.38;6225433;23;20008;-77
2022/06/29 05:00:53;;;;;;;2.72;1.42;;;;;;;11.16;100.00;99935.19;6225175;23;20453;-77
2022/06/29 05:03:19;;;;;;;3.75;1.13;;;;;;;11.23;100.00;99943.09;6226415;23;20008;-77
2022/06/29 05:05:53;;;;;;;9.23;2.13;;;;;;;11.22;100.00;99935.97;6252148;23;20004;-77
2022/06/29 05:08:28;;;;;;;;;;;;;;;;;;;;;
2022/06/29 05:11:22;;;;;;;8.15;1.52;;;;;;;11.30;100.00;99951.81;6188931;23;20059;-78
2022/06/29 05:13:51;;;;;;;6.65;1.80;;;;;;;11.37;100.00;99956.97;6163848;23;20367;-78
2022/06/29 05:16:19;;;;;;;5.85;1.73;;;;;;;11.32;100.00;99941.38;6164056;23;20009;-78
2022/06/29 05:18:55;;;;;;;11.50;2.50;;;;;;;11.46;100.00;99951.72;6135703;23;20020;-77
2022/06/29 05:21:21;;;;;;;7.40;1.95;;;;;;;11.44;100.00;99953.91;6139760;23;20009;-77
2022/06/29 05:24:13;;;;;;;;;;;;;;;;;;;;;
2022/06/29 05:26:50;;;;;;;8.32;2.00;;;;;;;11.47;100.00;99934.19;6211746;23;20020;-79
2022/06/29 05:29:19;;;;;;;5.82;1.52;;;;;;;11.57;100.00;99944.25;6169857;23;20008;-79
2022/06/29 05:31:47;;;;;;;5.75;1.90;;;;;;;11.64;100.00;99950.25;6196066;23;20004;-77
2022/06/29 05:34:59;;;;;;;;;;;;;;;;;;;;;
2022/06/29 05:37:48;;;;;;;5.85;2.00;;;;;;;11.70;100.00;99938.13;6127677;23;20061;-77
2022/06/29 05:40:14;;;;;;;5.43;1.92;;;;;;;11.72;100.00;99918.69;6102671;23;20407;-77
2022/06/29 05:42:42;;;;;;;8.68;2.80;;;;;;;12.03;100.00;99939.28;6129167;23;20016;-79
2022/06/29 05:45:11;;;;;;;7.38;3.05;;;;;;;12.30;100.00;99951.63;6127858;23;20002;-77
2022/06/29 05:47:36;;;;;;;16.45;3.15;;;;;;;12.49;100.00;99956.38;6197358;23;20015;-76
2022/06/29 05:50:09;;;;;;;9.07;2.72;;;;;;;12.67;100.00;99958.34;6193430;23;20008;-77
2022/06/29 05:52:38;;;;;;;9.38;2.60;;;;;;;12.82;100.00;99953.81;6193493;23;20493;-78
2022/06/29 05:55:05;;;;;;;5.30;3.05;;;;;;;13.04;100.00;99967.81;6169752;23;20080;-79
2022/06/29 05:57:37;;;;;;;9.73;3.42;;;;;;;13.17;100.00;99962.72;6220058;23;20000;-77
2022/06/29 06:00:10;;;;;;;9.65;2.70;;;;;;;13.22;100.00;99954.41;6194063;23;20005;-78
2022/06/29 06:02:48;;;;;;;;;;;;;;;;;;;;;
2022/06/29 06:05:14;;;;;;;11.20;2.90;;;;;;;13.39;100.00;99943.78;6220355;23;20027;-77
2022/06/29 06:07:41;;;;;;;9.43;3.70;;;;;;;13.66;100.00;99946.97;6195287;23;20015;-75
2022/06/29 06:10:09;;;;;;;11.07;2.72;;;;;;;13.55;98.47;99955.34;6192091;23;20016;-77
2022/06/29 06:12:34;;;;;;;10.65;2.85;;;;;;;13.50;97.93;99960.91;6218847;23;20078;-76
2022/06/29 06:15:01;;;;;;;13.65;2.78;;;;;;;13.61;98.78;99959.66;6193436;23;20008;-76
2022/06/29 06:17:27;;;;;;;9.98;3.40;;;;;;;13.77;97.95;99960.25;6235112;22;20016;-76
2022/06/29 06:20:02;;;;;;;16.10;3.50;;;;;;;13.71;96.22;99964.19;6252907;23;19995;-75
2022/06/29 06:22:28;;;;;;;9.82;2.53;;;;;;;13.78;96.51;99967.38;6224800;23;20007;-75
2022/06/29 06:24:53;;;;;;;4.45;1.98;;;;;;;14.01;96.49;99978.56;6222658;23;20016;-75
2022/06/29 06:27:18;;;;;;;11.63;3.15;;;;;;;13.97;95.39;99972.00;6224824;23;20010;-75
2022/06/29 06:30:02;;;;;;;9.98;1.80;;;;;;;14.01;95.63;99977.75;6196911;23;20012;-76
2022/06/29 06:32:28;;;;;;;11.50;2.72;;;;;;;14.10;95.53;99963.00;6250546;23;20062;-76
2022/06/29 06:34:53;;;;;;;7.63;1.77;;;;;;;14.40;94.90;99965.53;6223118;23;20012;-76
2022/06/29 06:37:18;;;;;;;9.48;2.22;;;;;;;14.27;92.87;99975.38;6222120;23;20083;-74
2022/06/29 06:41:21;;;;;;;6.30;1.70;;;;;;;14.17;92.39;99962.63;6200165;23;20528;-75
2022/06/29 06:42:29;;;;;;;8.32;2.38;;;;;;;14.19;93.05;99965.06;6228675;23;20016;-77
2022/06/29 06:44:55;;;;;;;12.00;3.25;;;;;;;14.19;91.69;99959.56;6201285;23;20008;-75
2022/06/29 06:47:44;;;;;;;;;;;;;;;;;;;;;
2022/06/29 06:50:10;;;;;;;13.85;2.72;;;;;;;14.12;90.67;99933.28;6251567;23;20020;-79
2022/06/29 06:52:46;;;;;;;13.32;2.20;;;;;;;14.18;90.29;99930.41;6250644;23;20035;-77
2022/06/29 06:55:13;;;;;;;10.10;2.25;;;;;;;14.28;91.03;99941.25;6222750;23;20000;-74
2022/06/29 06:57:39;;;;;;;8.68;1.98;;;;;;;14.24;90.80;99941.03;6222105;23;20016;-73
2022/06/29 07:00:05;;;;;;;9.48;1.80;;;;;;;14.35;90.60;99936.16;6248738;23;20004;-75
2022/06/29 07:02:33;;;;;;;10.80;1.77;;;;;;;14.70;89.66;99936.63;6222428;23;20012;-75
2022/06/29 07:04:59;;;;;;;13.75;2.30;;;;;;;15.31;86.45;99950.25;6223389;23;20008;-74
2022/06/29 07:07:24;;;;;;;5.68;1.77;;;;;;;15.83;84.42;99956.25;6249340;23;20005;-75
2022/06/29 07:09:51;;;;;;;15.30;2.40;;;;;;;16.03;82.92;99970.66;6196397;23;20378;-76
2022/06/29 07:12:16;;;;;;;6.00;1.77;;;;;;;15.82;81.88;99948.28;6246620;23;20034;-74
2022/06/29 07:14:47;;;;;;;7.85;1.95;;;;;;;15.90;83.08;99966.00;6200926;23;20004;-74
2022/06/29 07:17:12;;;;;;;7.43;1.73;;;;;;;16.09;82.95;99965.81;6225378;23;20034;-75
2022/06/29 07:20:00;;;;;;;15.13;2.13;;;;;;;16.14;79.83;99958.22;6226629;23;20079;-75
2022/06/29 07:22:25;;;;;;;7.60;1.75;;;;;;;15.99;80.68;99936.53;6228224;23;20376;-74
2022/06/29 07:24:54;;;;;;;10.18;1.90;;;;;;;16.32;80.83;99944.53;6204771;23;20004;-75
2022/06/29 07:27:21;;;;;;;5.60;1.77;;;;;;;16.63;80.21;99933.50;6228924;23;20010;-75
2022/06/29 07:29:52;;;;;;;7.80;2.33;;;;;;;17.00;78.26;99949.91;6229240;23;20087;-75
2022/06/29 07:32:31;;;;;;;13.55;2.50;;;;;;;17.06;77.13;99945.84;6225608;23;20034;-75
2022/06/29 07:34:56;;;;;;;11.40;2.25;;;;;;;17.01;75.05;99959.78;6229357;23;20011;-76
2022/06/29 07:37:33;;;;;;;9.80;2.47;;;;;;;16.85;75.58;99948.34;6202521;23;20031;-75
2022/06/29 07:40:05;;;;;;;5.82;1.95;;;;;;;16.64;76.02;99929.59;6253537;23;20000;-74
2022/06/29 07:42:36;;;;;;;15.90;2.50;;;;;;;16.86;74.44;99936.97;6224232;23;20093;-76
2022/06/29 07:45:19;;;;;;;13.55;2.05;;;;;;;17.06;73.85;99970.72;6224231;23;20045;-74
2022/06/29 07:47:54;;;;;;;7.88;1.80;;;;;;;17.20;74.49;99951.22;6227717;23;20000;-75
2022/06/29 07:50:29;;;;;;;12.23;2.53;;;;;;;17.39;72.30;99959.22;6228333;23;20004;-76
2022/06/29 07:52:56;;;;;;;6.40;1.65;;;;;;;17.43;72.68;99938.09;6222636;23;20004;-76
2022/06/29 07:55:22;;;;;;;6.93;1.50;;;;;;;17.87;71.63;99958.28;6255592;23;20022;-76
2022/06/29 07:57:47;;;;;;;11.45;1.85;;;;;;;18.11;70.45;99959.75;6226385;23;20000;-74
2022/06/29 08:00:16;;;;;;;11.05;1.98;;;;;;;18.13;68.71;99944.41;6225708;23;20008;-76
2022/06/29 08:02:51;;;;;;;;;;;;;;;;;;;;;
2022/06/29 08:05:27;;;;;;;;;;;;;;;;;;;;;
2022/06/29 08:07:53;;;;;;;7.60;2.00;;;;;;;18.60;68.12;99965.81;6228359;23;20024;-76
2022/06/29 08:10:24;;;;;;;10.68;1.90;;;;;;;18.58;66.93;99965.31;6226675;23;20309;-75
2022/06/29 08:12:49;;;;;;;5.63;1.52;;;;;;;18.57;65.24;99958.13;6253654;23;20046;-75
2022/06/29 08:15:17;;;;;;;14.73;2.17;;;;;;;18.17;67.36;99961.19;6254436;23;20366;-76
2022/06/29 08:17:48;;;;;;;11.52;2.15;;;;;;;18.08;66.96;99941.03;6252340;22;20035;-75
2022/06/29 08:20:16;;;;;;;11.43;2.17;;;;;;;18.64;65.68;99941.81;6224413;23;20000;-76
2022/06/29 08:22:45;;;;;;;8.98;1.70;;;;;;;18.94;63.68;99955.72;6225948;23;20446;-77
2022/06/29 08:25:11;;;;;;;9.77;1.58;;;;;;;18.91;62.24;99939.78;6226308;23;20023;-76
2022/06/29 08:27:38;;;;;;;7.57;2.10;;;;;;;18.82;62.04;99952.81;6201290;23;20004;-76
2022/06/29 08:30:04;;;;;;;10.70;1.73;;;;;;;18.43;61.92;99935.41;6225223;23;20054;-75
2022/06/29 08:32:30;;;;;;;8.02;1.77;;;;;;;18.01;63.77;99960.88;6225808;23;20007;-76
2022/06/29 08:35:02;;;;;;;9.55;1.88;;;;;;;17.76;64.90;99956.97;6251233;23;20000;-75
2022/06/29 08:37:28;;;;;;;8.93;2.05;;;;;;;17.67;66.06;99953.38;6226576;23;20028;-76
2022/06/29 08:39:54;;;;;;;7.85;2.17;;;;;;;17.69;65.37;99956.66;6227002;23;20035;-77
2022/06/29 08:42:23;;;;;;;6.70;1.35;;;;;;;17.67;65.68;99950.63;6251956;23;20007;-76
2022/06/29 08:44:50;;;;;;;4.75;1.63;;;;;;;17.70;64.89;99963.81;6225651;23;20026;-75
2022/06/29 08:47:15;;;;;;;9.02;1.55;;;;;;;17.80;65.33;99955.19;6225440;23;19999;-76
2022/06/29 08:49:48;;;;;;;8.82;1.83;;;;;;;18.10;65.60;99935.97;6174754;23;20004;-76
2022/06/29 08:52:15;;;;;;;9.98;1.45;;;;;;;18.47;64.49;99958.50;6253099;23;20004;-76
2022/06/29 08:54:43;;;;;;;17.08;2.20;;;;;;;18.61;61.27;99959.09;6223217;23;20023;-76
2022/06/29 08:57:09;;;;;;;5.05;1.73;;;;;;;18.73;62.03;99949.28;6225789;23;20007;-76
2022/06/29 08:59:35;;;;;;;9.13;1.77;;;;;;;19.13;61.73;99948.97;6223970;23;19996;-76
2022/06/29 09:02:01;;;;;;;6.72;1.70;;;;;;;19.57;59.58;99941.13;6199238;23;20018;-76
2022/06/29 09:04:27;;;;;;;12.45;2.20;;;;;;;19.93;57.47;99955.53;6200206;23;20008;-76
2022/06/29 09:06:54;;;;;;;4.43;1.45;;;;;;;19.82;56.37;99961.50;6225164;23;20435;-75
2022/06/29 09:09:21;;;;;;;7.63;1.40;;;;;;;19.93;55.96;99967.47;6225822;23;20008;-76
2022/06/29 09:11:50;;;;;;;8.93;1.23;;;;;;;20.51;54.67;99958.38;6222509;23;20008;-76
2022/06/29 09:14:22;;;;;;;6.57;1.20;;;;;;;20.75;54.24;99961.22;6252754;22;20020;-76
2022/06/29 09:16:53;;;;;;;7.15;1.58;;;;;;;20.87;53.73;99956.81;6225251;23;20043;-77
2022/06/29 09:19:25;;;;;;;9.02;2.03;;;;;;;20.90;52.90;99954.16;6224729;23;20000;-76
2022/06/29 09:21:52;;;;;;;16.98;1.55;;;;;;;20.91;52.36;99954.97;6224137;23;20007;-77
2022/06/29 09:24:28;;;;;;;2.63;1.10;;;;;;;20.52;53.91;99948.88;6225231;23;20030;-76
2022/06/29 09:26:57;;;;;;;6.85;1.75;;;;;;;20.36;54.41;99952.31;6199202;23;20036;-77
2022/06/29 09:29:28;;;;;;;5.05;1.42;;;;;;;20.32;54.61;99945.81;6222875;23;19996;-76
2022/06/29 09:32:06;;;;;;;8.60;1.80;;;;;;;20.47;53.80;99940.78;6223966;23;20004;-76
2022/06/29 09:34:32;;;;;;;8.13;1.77;;;;;;;20.64;52.63;99951.66;6227854;23;20018;-76
2022/06/29 09:37:01;;;;;;;8.65;1.52;;;;;;;20.43;52.86;99951.78;6202259;23;20027;-75
2022/06/29 09:39:38;;;;;;;7.00;1.55;;;;;;;19.83;54.36;99948.44;6226180;23;20292;-73
2022/06/29 09:42:34;;;;;;;6.07;1.67;;;;;;;19.22;55.74;99958.03;6199784;23;20123;-76
2022/06/29 09:44:59;;;;;;;5.20;1.27;;;;;;;19.02;57.03;99957.63;6223277;23;20032;-76
2022/06/29 09:47:25;;;;;;;10.65;1.50;;;;;;;19.05;57.35;99945.06;6222268;23;20068;-75
2022/06/29 09:50:02;;;;;;;11.15;2.03;;;;;;;19.15;57.32;99960.50;6199516;23;20042;-76
2022/06/29 09:52:28;;;;;;;6.78;1.40;;;;;;;19.46;56.35;99951.00;6248712;23;20056;-77
2022/06/29 09:54:56;;;;;;;9.13;1.48;;;;;;;20.10;53.94;99960.13;6223936;23;20524;-77
2022/06/29 09:57:27;;;;;;;7.45;1.20;;;;;;;20.85;51.75;99945.22;6250356;23;20339;-76
2022/06/29 10:02:47;;;;;;;3.83;1.05;;;;;;;21.44;50.88;99972.50;6250668;23;20062;-76
2022/06/29 10:05:15;;;;;;;8.35;1.33;;;;;;;21.17;49.65;99964.91;6196677;23;20004;-75
2022/06/29 10:07:46;;;;;;;7.55;1.25;;;;;;;20.57;50.83;99957.81;6249559;23;20012;-75
2022/06/29 10:10:17;;;;;;;9.77;1.25;;;;;;;20.27;51.11;99971.06;6251244;23;20020;-76
2022/06/29 10:16:05;;;;;;;6.95;1.48;;;;;;;23.05;45.18;99979.28;6252440;23;20023;-76
2022/06/29 10:18:38;;;;;;;7.63;1.40;;;;;;;22.44;46.66;99971.03;6249696;22;20012;-75
2022/06/29 10:21:14;;;;;;;8.35;1.02;;;;;;;21.79;47.33;99966.41;6223885;23;20011;-75
2022/06/29 10:23:55;;;;;;;8.38;1.40;;;;;;;21.84;47.98;99995.16;6251427;23;20082;-75
2022/06/29 10:26:28;;;;;;;11.35;1.40;;;;;;;25.18;42.10;99967.56;6251986;23;20006;-76
2022/06/29 10:29:18;;;;;;;5.32;1.17;;;;;;;27.17;34.78;99977.00;6226315;23;20050;-76
2022/06/29 10:31:59;;;;;;;7.50;1.60;;;;;;;25.13;38.96;99965.06;6226204;23;20062;-76
2022/06/29 10:34:31;;;;;;;3.60;1.15;;;;;;;25.89;39.27;99973.34;6223976;23;20435;-76
2022/06/29 10:37:02;;;;;;;10.30;1.58;;;;;;;28.96;32.84;99973.25;6224416;23;20127;-76
2022/06/29 10:39:49;;;;;;;4.78;0.70;;;;;;;29.43;32.32;99976.81;6224357;23;20004;-76
2022/06/29 10:45:16;;;;;;;6.68;2.03;;;;;;;24.53;39.96;99972.03;6248774;23;20035;-76
2022/06/29 10:47:54;;;;;;;8.32;1.63;;;;;;;22.95;44.25;99959.16;6199480;23;20004;-76
2022/06/29 10:50:23;;;;;;;4.05;0.93;;;;;;;22.17;46.82;99963.50;6251667;23;20000;-77
2022/06/29 10:53:02;;;;;;;12.50;2.33;;;;;;;22.49;47.06;99959.59;6251197;23;20374;-76
2022/06/29 10:55:29;;;;;;;4.28;1.13;;;;;;;26.18;38.72;99962.50;6251634;22;20013;-76
2022/06/29 10:57:56;;;;;;;6.13;1.10;;;;;;;30.61;30.07;99973.91;6250042;23;20001;-75
2022/06/29 11:00:26;;;;;;;6.22;1.38;;;;;;;30.95;28.38;99964.72;6252064;23;20423;-76
2022/06/29 11:02:52;;;;;;;3.88;0.90;;;;;;;32.60;25.25;100001.56;6251032;23;20011;-76
2022/06/29 11:05:17;;;;;;;6.10;1.20;;;;;;;33.68;23.47;99979.09;6251051;23;20050;-75
2022/06/29 11:17:39;;;;;;;5.45;1.27;;;;;;;37.25;19.55;99966.47;6250407;22;20027;-75
2022/06/29 11:19:58;;;;;;;9.55;1.30;;;;;;;32.35;24.20;99956.69;6227902;23;20008;-74
2022/06/29 11:22:26;;;;;;;5.80;0.98;;;;;;;28.78;29.74;99935.88;6224321;23;20020;-74
2022/06/29 11:24:59;;;;;;;8.57;1.58;;;;;;;27.29;32.24;99950.63;6197401;23;20012;-76
2022/06/29 11:27:34;;;;;;;6.13;1.70;;;;;;;28.29;31.62;99949.50;6248803;23;20070;-75
2022/06/29 11:30:03;;;;;;;3.55;1.10;;;;;;;30.84;29.19;99949.91;6176744;23;20012;-75
2022/06/29 11:32:54;;;;;;;4.03;1.10;;;;;;;31.66;25.76;99962.44;6223064;23;20093;-75
2022/06/29 11:35:22;;;;;;;6.68;1.60;;;;;;;30.85;27.00;99948.69;6221445;23;20427;-75
2022/06/29 11:37:52;;;;;;;3.47;1.15;;;;;;;30.89;27.04;99938.19;6222861;23;20001;-75
2022/06/29 11:40:29;;;;;;;3.85;0.88;;;;;;;32.70;24.33;99944.00;6250055;23;20087;-75
2022/06/29 11:43:08;;;;;;;5.15;1.27;;;;;;;33.55;22.68;99942.88;6249641;23;20004;-75
2022/06/29 11:45:46;;;;;;;3.95;0.90;;;;;;;35.19;21.69;99941.50;6222696;23;20305;-76
2022/06/29 11:48:13;;;;;;;6.90;1.02;;;;;;;34.67;22.24;99940.41;6223878;23;19996;-75
2022/06/29 11:50:56;;;;;;;4.00;0.90;;;;;;;31.10;24.37;99932.38;6198763;23;20066;-74
2022/06/29 11:53:48;;;;;;;5.30;0.95;;;;;;;27.41;29.25;99930.69;6251487;23;20004;-75
2022/06/29 11:56:16;;;;;;;6.38;1.10;;;;;;;25.70;32.75;99937.09;6252285;23;20301;-76
2022/06/29 11:58:46;;;;;;;7.70;1.20;;;;;;;25.07;36.00;99933.81;6226231;22;20004;-75
2022/06/29 12:01:15;;;;;;;9.13;1.42;;;;;;;24.99;36.52;99932.13;6251509;23;20010;-75
2022/06/29 12:03:51;;;;;;;9.18;1.63;;;;;;;24.50;37.29;99928.09;6225471;23;20432;-75
2022/06/29 12:06:17;;;;;;;6.65;1.50;;;;;;;24.33;38.40;99918.22;6253086;23;19992;-76
2022/06/29 12:08:43;;;;;;;5.30;1.13;;;;;;;24.15;38.11;99924.28;6225039;23;20030;-75
2022/06/29 12:11:08;;;;;;;7.95;1.20;;;;;;;23.99;38.97;99926.34;6225201;23;20071;-76
2022/06/29 12:13:34;;;;;;;6.10;1.13;;;;;;;23.90;39.65;99926.59;6251160;23;20000;-76
2022/06/29 12:15:59;;;;;;;4.05;1.33;;;;;;;26.26;34.90;99922.16;6225094;23;20090;-75
2022/06/29 12:18:25;;;;;;;2.75;0.80;;;;;;;27.63;30.90;99925.97;6252429;22;20043;-75
2022/06/29 12:20:51;;;;;;;2.70;0.90;;;;;;;26.77;31.70;99923.44;6252182;23;20008;-75
2022/06/29 12:23:29;;;;;;;3.08;0.80;;;;;;;27.13;31.45;99925.66;6251910;23;20015;-76
2022/06/29 12:25:58;;;;;;;2.45;0.73;;;;;;;30.63;26.58;99921.47;6201430;23;19992;-76
2022/06/29 12:28:24;;;;;;;1.83;0.70;;;;;;;33.76;22.01;99921.00;6250299;23;20338;-75
2022/06/29 12:30:50;;;;;;;2.35;0.80;;;;;;;36.09;20.63;99938.16;6226141;23;20008;-76
2022/06/29 12:33:15;;;;;;;2.83;0.75;;;;;;;38.21;18.39;99924.22;6253524;23;20008;-76
2022/06/29 12:35:41;;;;;;;3.33;1.15;;;;;;;39.62;16.82;99930.44;6200778;23;20064;-76
2022/06/29 12:38:08;;;;;;;4.65;1.00;;;;;;;36.58;19.38;99937.81;6201676;23;20004;-76
2022/06/29 12:40:42;;;;;;;4.95;1.27;;;;;;;36.67;19.97;99934.28;6225056;23;20012;-76
2022/06/29 12:43:08;;;;;;;5.57;1.33;;;;;;;35.46;20.28;99920.50;6251972;23;20004;-76
2022/06/29 12:45:34;;;;;;;4.13;1.02;;;;;;;37.18;18.82;99921.97;6225744;23;20018;-76
2022/06/29 12:47:59;;;;;;;1.48;0.57;;;;;;;39.65;18.09;99926.63;6199840;23;20077;-75
2022/06/29 12:50:28;;;;;;;6.25;1.13;;;;;;;40.36;16.24;99927.31;6225139;23;20330;-76
2022/06/29 12:52:56;;;;;;;4.57;1.27;;;;;;;40.57;15.23;99942.69;6199656;23;20008;-76
2022/06/29 12:55:22;;;;;;;4.78;1.35;;;;;;;38.20;17.34;99932.00;6251910;23;20501;-76
2022/06/29 12:57:48;;;;;;;3.60;0.98;;;;;;;40.18;16.23;99939.66;6225111;23;19999;-76
2022/06/29 13:00:15;;;;;;;3.40;0.80;;;;;;;39.59;16.05;99940.00;6224898;23;20004;-76
2022/06/29 13:02:41;;;;;;;4.22;1.17;;;;;;;40.46;15.84;99937.47;6226993;23;20000;-75
2022/06/29 13:05:10;;;;;;;2.38;0.63;;;;;;;40.80;14.80;99946.84;6224203;23;20050;-75
2022/06/29 13:07:37;;;;;;;6.45;1.30;;;;;;;40.40;15.12;99933.66;6250836;23;19996;-75
2022/06/29 13:10:05;;;;;;;2.70;0.98;;;;;;;41.36;14.13;99934.97;6248192;23;20526;-75
2022/06/29 13:12:30;;;;;;;5.35;1.10;;;;;;;41.48;13.83;99951.09;6250801;23;20000;-75
2022/06/29 13:14:56;;;;;;;3.60;1.08;;;;;;;41.65;14.49;99947.75;6173838;23;20366;-76
2022/06/29 13:17:23;;;;;;;4.07;1.10;;;;;;;39.25;16.22;99933.31;6222386;22;20024;-78
2022/06/29 13:19:49;;;;;;;3.65;0.98;;;;;;;36.10;18.35;99925.53;6199123;23;20016;-77
2022/06/29 13:22:18;;;;;;;10.48;1.35;;;;;;;35.55;19.65;99920.63;6199313;23;20030;-76
2022/06/29 13:24:44;;;;;;;8.85;1.33;;;;;;;34.79;19.81;99927.56;6224147;23;20428;-77
2022/06/29 13:27:10;;;;;;;4.22;1.30;;;;;;;32.13;22.59;99905.31;6251841;23;20004;-78
2022/06/29 13:29:36;;;;;;;3.60;1.00;;;;;;;32.05;23.48;99932.84;6250773;23;20062;-76
2022/06/29 13:32:02;;;;;;;3.78;1.35;;;;;;;31.44;23.95;99920.28;6248634;23;20374;-77
2022/06/29 13:34:28;;;;;;;7.22;1.40;;;;;;;29.51;26.56;99924.13;6249019;23;20034;-79
2022/06/29 13:36:57;;;;;;;5.25;1.00;;;;;;;28.18;28.40;99910.09;6251347;23;20008;-78